KJAX/JAX METAR and TAF weather

Enter ICAO airport designator
Station Type Date Time Source
KJAX METAR 2022/06/25 21:56 UTC NOAA

KJAX 252156Z 08010KT 10SM SCT034 BKN250 29/21 A3003 RMK AO2 SLP171 T02940211 $


Station Type Date Time Source
KJAX Decoded METAR 2022/06/25 21:56 UTC NOAA

JACKSONVILLE INTERNATIONAL, FL, United States (KJAX) 30-30N 81-42W 7M
Jun 25, 2022 - 05:56 PM EDT / 2022.06.25 2156 UTC
Wind: from the E (080 degrees) at 12 MPH (10 KT):0
Visibility: 10 mile(s):0
Sky conditions: mostly cloudy
Temperature: 84.9 F (29.4 C)
Dew Point: 70.0 F (21.1 C)
Relative Humidity: 61%
Pressure (altimeter): 30.03 in. Hg (1016 hPa)
ob: KJAX 252156Z 08010KT 10SM SCT034 BKN250 29/21 A3003 RMK AO2 SLP171 T02940211
cycle: 22

Station Type Date Time Source
KJAX TAF 2022/06/25 18:54 UTC NOAA

TAF KJAX 251752Z 2518/2618 08011G16KT P6SM SCT040 SCT070
FM260000 09006KT P6SM FEW030 SCT070 SCT250
FM260600 00000KT P6SM FEW020 SCT250
FM261300 08007KT P6SM VCSH SCT020 SCT250
FM261600 08011G16KT P6SM SCT040

Example: see airport list